Time;durP1;ratioP1;P1;durP2;ratioP2;P2;SDS_P1;SDS_P2;PMS_P1;PMS_P2;Temp;Humidity;BMP_temperature;BMP_pressure;BME280_temperature;BME280_humidity;BME280_pressure;Samples;Min_cycle;Max_cycle;Signal;HPM_P1;HPM_P2
2022/03/24 00:02:06;;;;;;;50.95;32.10;;;5.50;76.40;;;;;;5057717;28;20605;-79
2022/03/24 00:04:32;;;;;;;54.42;31.25;;;5.50;76.30;;;;;;5080821;28;20040;-79
2022/03/24 00:06:57;;;;;;;55.13;32.25;;;5.60;76.40;;;;;;5059687;28;20542;-79
2022/03/24 00:09:23;;;;;;;51.78;30.42;;;5.50;76.40;;;;;;5049648;28;20368;-79
2022/03/24 00:11:48;;;;;;;52.55;31.95;;;5.60;76.30;;;;;;5051257;28;20089;-79
2022/03/24 00:14:16;;;;;;;53.58;30.80;;;5.70;75.90;;;;;;5055536;28;20051;-79
2022/03/24 00:16:42;;;;;;;51.67;29.55;;;5.80;75.50;;;;;;5067883;28;20036;-79
2022/03/24 00:19:08;;;;;;;56.90;31.67;;;5.90;75.10;;;;;;5074317;28;20028;-79
2022/03/24 00:21:33;;;;;;;48.97;29.05;;;6.00;75.10;;;;;;5050075;28;20025;-79
2022/03/24 00:23:59;;;;;;;52.22;29.42;;;6.00;75.00;;;;;;5055532;28;20036;-79
2022/03/24 00:26:24;;;;;;;47.75;29.45;;;6.00;74.90;;;;;;5064242;28;20515;-79
2022/03/24 00:28:50;;;;;;;51.30;30.35;;;5.90;75.00;;;;;;5054046;28;20028;-79
2022/03/24 00:31:15;;;;;;;46.25;29.25;;;6.00;74.90;;;;;;5044967;28;20032;-79
2022/03/24 00:33:41;;;;;;;51.65;30.27;;;6.10;74.60;;;;;;5067133;28;20025;-79
2022/03/24 00:36:10;;;;;;;51.78;30.77;;;6.10;74.60;;;;;;5063353;28;20109;-79
2022/03/24 00:38:36;;;;;;;53.38;31.63;;;6.00;74.70;;;;;;5052257;28;20020;-79
2022/03/24 00:41:02;;;;;;;54.90;30.15;;;6.00;74.80;;;;;;5070849;28;20069;-79
2022/03/24 00:43:29;;;;;;;51.70;30.95;;;6.10;74.60;;;;;;5054630;28;20048;-79
2022/03/24 00:45:54;;;;;;;58.25;31.50;;;6.00;74.60;;;;;;5065827;28;20494;-79
2022/03/24 00:48:20;;;;;;;53.50;29.77;;;6.00;74.60;;;;;;5072526;28;20124;-79
2022/03/24 00:50:45;;;;;;;52.75;32.13;;;6.10;74.80;;;;;;5050685;28;20450;-79
2022/03/24 00:53:15;;;;;;;52.55;30.23;;;6.10;74.40;;;;;;5053571;28;20044;-79
2022/03/24 00:55:58;;;;;;;50.53;31.10;;;6.00;74.80;;;;;;5058578;28;20035;-79
2022/03/24 00:58:24;;;;;;;50.78;30.40;;;5.80;75.30;;;;;;5068983;28;20016;-79
2022/03/24 01:00:50;;;;;;;60.33;30.92;;;5.80;75.30;;;;;;5055320;28;20059;-79
2022/03/24 01:03:15;;;;;;;59.90;31.73;;;5.60;75.60;;;;;;5049648;28;20425;-79
2022/03/24 01:05:41;;;;;;;54.58;31.42;;;5.60;76.20;;;;;;5040340;28;20037;-79
2022/03/24 01:08:10;;;;;;;53.08;30.45;;;5.40;76.30;;;;;;5071703;28;20016;-79
2022/03/24 01:10:36;;;;;;;51.20;30.90;;;5.30;76.20;;;;;;5051645;28;20033;-79
2022/03/24 01:13:03;;;;;;;59.08;31.80;;;5.20;76.80;;;;;;5055280;28;20430;-79
2022/03/24 01:15:30;;;;;;;51.15;30.10;;;5.30;77.00;;;;;;5047005;28;20025;-79
2022/03/24 01:17:59;;;;;;;53.17;31.05;;;5.10;77.40;;;;;;5058661;28;20017;-79
2022/03/24 01:20:25;;;;;;;50.92;31.17;;;5.00;77.70;;;;;;5060626;28;20058;-79
2022/03/24 01:22:51;;;;;;;56.70;31.65;;;4.90;78.00;;;;;;5072525;28;20060;-79
2022/03/24 01:25:17;;;;;;;50.70;30.67;;;4.80;78.40;;;;;;5068476;28;20067;-79
2022/03/24 01:27:42;;;;;;;47.72;30.95;;;4.70;78.60;;;;;;5063051;28;20059;-79
2022/03/24 01:30:09;;;;;;;54.08;31.50;;;4.60;78.80;;;;;;5060300;28;20036;-79
2022/03/24 01:32:35;;;;;;;52.90;30.15;;;4.50;78.90;;;;;;5056621;28;20031;-79
2022/03/24 01:35:03;;;;;;;51.78;30.75;;;4.40;78.90;;;;;;5056948;28;20024;-79
2022/03/24 01:37:28;;;;;;;56.58;32.97;;;4.30;79.30;;;;;;5052135;28;20048;-79
2022/03/24 01:39:54;;;;;;;55.28;31.83;;;4.30;79.80;;;;;;5069878;28;20021;-79
2022/03/24 01:42:20;;;;;;;59.70;32.05;;;4.20;79.90;;;;;;5050720;28;20395;-79
2022/03/24 01:44:47;;;;;;;52.88;31.45;;;4.10;80.30;;;;;;5047919;28;20039;-79
2022/03/24 01:47:15;;;;;;;63.50;33.83;;;4.10;80.40;;;;;;5064498;28;20024;-79
2022/03/24 01:49:44;;;;;;;51.85;31.95;;;4.00;80.60;;;;;;5076482;28;20028;-78
2022/03/24 01:52:12;;;;;;;52.22;31.45;;;4.00;80.50;;;;;;5072765;28;20531;-78
2022/03/24 01:54:40;;;;;;;60.03;33.03;;;3.90;80.60;;;;;;5061933;28;20016;-78
2022/03/24 01:57:10;;;;;;;53.08;31.65;;;3.80;81.00;;;;;;5070143;28;20036;-78
2022/03/24 01:59:40;;;;;;;56.60;32.63;;;3.80;81.40;;;;;;5063060;28;20024;-78
2022/03/24 02:02:09;;;;;;;63.90;34.22;;;3.80;81.60;;;;;;5070167;28;20055;-78
2022/03/24 02:04:36;;;;;;;59.25;34.95;;;3.70;81.80;;;;;;5084241;28;20028;-78
2022/03/24 02:07:05;;;;;;;59.65;34.30;;;3.70;81.80;;;;;;5052047;28;20182;-78
2022/03/24 02:09:32;;;;;;;56.78;33.92;;;3.60;81.70;;;;;;5048759;28;20036;-78
2022/03/24 02:11:57;;;;;;;62.80;33.88;;;3.60;82.00;;;;;;5068350;28;20032;-78
2022/03/24 02:14:23;;;;;;;56.17;33.90;;;3.60;82.00;;;;;;5068727;28;20033;-78
2022/03/24 02:16:49;;;;;;;57.42;33.25;;;3.60;82.20;;;;;;5070940;28;20028;-78
2022/03/24 02:19:23;;;;;;;59.60;33.50;;;3.50;82.10;;;;;;5055941;28;20028;-78
2022/03/24 02:21:51;;;;;;;56.53;33.30;;;3.50;82.30;;;;;;5052417;28;20112;-78
2022/03/24 02:24:19;;;;;;;64.28;33.42;;;3.50;82.60;;;;;;5063124;28;20024;-79
2022/03/24 02:26:46;;;;;;;59.17;33.35;;;3.40;82.60;;;;;;5065964;28;20167;-79
2022/03/24 02:29:13;;;;;;;59.65;33.88;;;3.40;82.90;;;;;;5067753;28;20092;-79
2022/03/24 02:31:43;;;;;;;59.40;33.58;;;3.40;82.90;;;;;;5054719;28;20403;-79
2022/03/24 02:36:57;;;;;;;59.58;33.63;;;3.40;83.00;;;;;;5064225;28;20175;-78
2022/03/24 02:39:22;;;;;;;59.15;32.58;;;3.40;83.00;;;;;;5049085;28;20151;-78
2022/03/24 02:41:52;;;;;;;58.00;32.85;;;3.30;83.10;;;;;;5046936;28;20044;-78
2022/03/24 02:44:19;;;;;;;57.88;33.88;;;3.30;83.10;;;;;;5065557;28;20032;-78
2022/03/24 02:46:48;;;;;;;64.40;34.92;;;3.30;83.20;;;;;;5046773;28;20047;-78
2022/03/24 02:49:18;;;;;;;59.40;32.55;;;3.20;83.30;;;;;;5049266;28;20032;-78
2022/03/24 02:51:44;;;;;;;61.28;34.65;;;3.20;83.50;;;;;;5057220;28;20108;-78
2022/03/24 02:54:11;;;;;;;66.55;35.25;;;3.20;83.50;;;;;;5082600;28;20050;-78
2022/03/24 02:56:37;;;;;;;62.83;33.40;;;3.20;83.60;;;;;;5059530;28;20028;-78
2022/03/24 02:59:06;;;;;;;63.20;35.08;;;3.10;83.50;;;;;;5050347;28;20086;-78
2022/03/24 03:01:33;;;;;;;60.22;33.25;;;3.10;83.50;;;;;;5048425;28;20032;-78
2022/03/24 03:03:58;;;;;;;67.47;35.85;;;3.20;83.80;;;;;;5067992;28;20024;-78
2022/03/24 03:06:24;;;;;;;58.28;33.25;;;3.10;83.80;;;;;;5080483;28;20407;-78
2022/03/24 03:08:49;;;;;;;56.55;33.38;;;3.10;84.00;;;;;;5068747;28;20510;-78
2022/03/24 03:11:16;;;;;;;59.40;34.40;;;3.10;84.00;;;;;;5080472;28;20085;-78
2022/03/24 03:13:43;;;;;;;61.17;33.65;;;3.10;83.90;;;;;;5070680;28;20033;-78
2022/03/24 03:16:09;;;;;;;63.85;34.80;;;3.10;83.90;;;;;;5063154;28;20020;-78
2022/03/24 03:18:34;;;;;;;57.15;34.28;;;3.10;83.90;;;;;;5067360;28;20094;-78
2022/03/24 03:21:00;;;;;;;61.70;33.80;;;3.20;83.90;;;;;;5062975;28;20036;-78
2022/03/24 03:23:26;;;;;;;62.25;35.17;;;3.20;83.80;;;;;;5088554;28;20494;-78
2022/03/24 03:25:52;;;;;;;59.78;32.10;;;3.30;83.60;;;;;;5057813;28;20033;-78
2022/03/24 03:28:18;;;;;;;57.92;33.83;;;3.50;83.20;;;;;;5051765;28;20030;-78
2022/03/24 03:30:44;;;;;;;58.88;32.50;;;3.50;83.00;;;;;;5042114;28;20066;-78
2022/03/24 03:33:10;;;;;;;60.33;33.38;;;3.40;82.70;;;;;;5067406;28;20031;-78
2022/03/24 03:35:37;;;;;;;54.45;33.03;;;3.40;82.70;;;;;;5071376;28;20025;-78
2022/03/24 03:38:03;;;;;;;56.88;33.75;;;3.40;83.00;;;;;;5058790;28;20470;-78
2022/03/24 03:40:29;;;;;;;58.50;32.55;;;3.30;83.00;;;;;;5079763;28;20081;-78
2022/03/24 03:42:54;;;;;;;55.45;32.85;;;3.20;83.10;;;;;;5072450;28;20032;-78
2022/03/24 03:45:20;;;;;;;59.22;33.15;;;3.20;83.10;;;;;;5052654;28;20046;-78
2022/03/24 03:47:46;;;;;;;59.10;33.60;;;3.20;83.30;;;;;;5052877;28;20506;-78
2022/03/24 03:50:11;;;;;;;63.72;34.50;;;3.10;83.50;;;;;;5050014;28;20028;-78
2022/03/24 03:52:37;;;;;;;62.03;34.17;;;3.10;83.50;;;;;;5053646;28;20070;-78
2022/03/24 03:55:04;;;;;;;60.08;35.50;;;3.10;83.50;;;;;;5069740;28;20052;-78
2022/03/24 03:57:29;;;;;;;70.15;36.47;;;3.10;83.70;;;;;;5055428;28;20117;-78
2022/03/24 03:59:55;;;;;;;59.72;35.70;;;3.10;83.60;;;;;;5052763;28;20442;-78
2022/03/24 04:02:20;;;;;;;62.15;36.20;;;3.00;83.60;;;;;;5063301;28;20024;-78
2022/03/24 04:04:46;;;;;;;71.03;35.63;;;3.00;83.50;;;;;;5070530;28;20090;-78
2022/03/24 04:07:12;;;;;;;58.35;34.67;;;3.10;83.70;;;;;;5066777;28;20043;-78
2022/03/24 04:09:38;;;;;;;61.15;35.40;;;3.00;83.60;;;;;;5044156;28;20180;-78
2022/03/24 04:12:04;;;;;;;66.28;37.30;;;3.00;83.80;;;;;;5050861;28;20381;-78
2022/03/24 04:14:29;;;;;;;59.47;34.38;;;3.10;83.80;;;;;;5070803;28;20133;-78
2022/03/24 04:16:57;;;;;;;52.15;31.33;;;3.20;83.50;;;;;;5070018;28;20044;-78
2022/03/24 04:19:24;;;;;;;58.30;33.88;;;3.20;82.90;;;;;;5073680;28;20043;-78
2022/03/24 04:21:49;;;;;;;63.67;34.58;;;3.30;82.90;;;;;;5064907;28;20159;-78
2022/03/24 04:24:15;;;;;;;62.35;34.50;;;3.40;82.60;;;;;;5048155;28;20068;-78
2022/03/24 04:26:40;;;;;;;61.72;35.20;;;3.30;82.40;;;;;;5066884;28;20027;-78
2022/03/24 04:29:06;;;;;;;58.45;33.90;;;3.20;82.50;;;;;;5047910;28;20488;-78
2022/03/24 04:31:32;;;;;;;65.00;34.72;;;3.10;82.60;;;;;;5062509;28;20531;-78
2022/03/24 04:33:57;;;;;;;65.78;33.05;;;3.10;82.90;;;;;;5037536;28;20047;-78
2022/03/24 04:36:23;;;;;;;56.97;32.80;;;3.00;82.90;;;;;;5041571;28;1018334;-78
2022/03/24 04:38:49;;;;;;;57.88;33.83;;;2.90;82.90;;;;;;5065528;28;20037;-78
2022/03/24 04:41:14;;;;;;;54.25;33.13;;;2.80;83.10;;;;;;5082204;28;20360;-78
2022/03/24 04:43:40;;;;;;;52.17;32.40;;;2.80;83.50;;;;;;5066226;28;20032;-78
2022/03/24 04:46:05;;;;;;;50.30;30.70;;;2.80;83.70;;;;;;5048623;28;20032;-79
2022/03/24 04:48:38;;;;;;;56.35;32.53;;;2.80;83.90;;;;;;5052627;28;20036;-79
2022/03/24 04:51:05;;;;;;;55.60;30.77;;;3.10;84.00;;;;;;5068546;28;20043;-79
2022/03/24 04:53:31;;;;;;;56.67;32.15;;;3.10;83.40;;;;;;5055501;28;20025;-79
2022/03/24 04:55:57;;;;;;;56.47;32.50;;;3.10;83.10;;;;;;5072821;28;20031;-79
2022/03/24 04:58:23;;;;;;;57.70;31.25;;;3.00;82.80;;;;;;5075328;28;20043;-79
2022/03/24 05:00:48;;;;;;;57.08;33.53;;;3.10;83.10;;;;;;5063965;28;20025;-79
2022/03/24 05:03:14;;;;;;;53.08;31.85;;;3.10;83.00;;;;;;5066237;28;20509;-79
2022/03/24 05:05:39;;;;;;;54.30;30.45;;;3.00;83.00;;;;;;5058019;28;20028;-79
2022/03/24 05:08:05;;;;;;;56.75;32.20;;;2.90;83.00;;;;;;5067502;28;20052;-79
2022/03/24 05:10:30;;;;;;;52.22;30.45;;;2.90;83.30;;;;;;5070538;28;20511;-79
2022/03/24 05:12:56;;;;;;;59.08;31.40;;;2.90;83.20;;;;;;5063912;28;20049;-79
2022/03/24 05:15:23;;;;;;;53.70;31.48;;;2.90;83.10;;;;;;5053319;28;20873;-79
2022/03/24 05:17:51;;;;;;;57.72;31.27;;;2.90;83.20;;;;;;5062991;28;20052;-79
2022/03/24 05:20:17;;;;;;;52.42;31.17;;;2.80;83.10;;;;;;5062958;28;20025;-79
2022/03/24 05:22:42;;;;;;;55.25;30.65;;;2.80;83.10;;;;;;5066163;28;20106;-79
2022/03/24 05:25:08;;;;;;;52.58;29.73;;;2.80;83.40;;;;;;5044499;28;20060;-78
2022/03/24 05:27:33;;;;;;;51.53;30.23;;;2.90;83.50;;;;;;5065753;28;20464;-78
2022/03/24 05:29:59;;;;;;;54.45;30.15;;;2.90;83.10;;;;;;5066439;28;20036;-78
2022/03/24 05:32:26;;;;;;;54.90;30.92;;;3.00;83.10;;;;;;5064050;28;20040;-78
2022/03/24 05:34:52;;;;;;;53.05;31.25;;;3.10;82.80;;;;;;5047544;28;20038;-78
2022/03/24 05:37:18;;;;;;;54.17;31.02;;;3.30;82.40;;;;;;5051819;28;20103;-78
2022/03/24 05:39:43;;;;;;;53.03;30.35;;;3.30;81.70;;;;;;5064930;28;20029;-78
2022/03/24 05:42:09;;;;;;;55.40;30.33;;;3.40;81.40;;;;;;5068623;28;20124;-78
2022/03/24 05:44:35;;;;;;;50.88;30.02;;;3.40;81.20;;;;;;5044665;28;20583;-76
2022/03/24 05:47:02;;;;;;;48.38;29.55;;;3.40;81.10;;;;;;5040286;28;20032;-76
2022/03/24 05:49:28;;;;;;;47.45;27.98;;;3.40;80.80;;;;;;5051317;28;20032;-77
2022/03/24 05:51:54;;;;;;;49.67;29.23;;;3.50;80.70;;;;;;5052914;28;20033;-77
2022/03/24 05:54:20;;;;;;;47.97;27.90;;;3.40;80.50;;;;;;5059743;28;20480;-77
2022/03/24 05:56:46;;;;;;;51.63;30.45;;;3.40;80.50;;;;;;5081235;28;20051;-78
2022/03/24 05:59:12;;;;;;;45.50;29.05;;;3.40;80.70;;;;;;5073295;28;20021;-77
2022/03/24 06:01:39;;;;;;;54.88;29.20;;;3.40;81.10;;;;;;5050746;28;20036;-78
2022/03/24 06:04:05;;;;;;;48.67;28.23;;;3.40;80.90;;;;;;5064255;28;20025;-77
2022/03/24 06:06:34;;;;;;;49.60;28.95;;;3.40;81.10;;;;;;5055393;28;20036;-77
2022/03/24 06:09:01;;;;;;;48.35;29.50;;;3.50;80.80;;;;;;5055572;28;20403;-77
2022/03/24 06:11:27;;;;;;;51.10;29.75;;;3.50;81.20;;;;;;5067421;28;20024;-77
2022/03/24 06:13:53;;;;;;;46.33;29.10;;;3.50;81.20;;;;;;5069572;28;20043;-77
2022/03/24 06:16:19;;;;;;;48.47;29.50;;;3.60;81.20;;;;;;5051034;28;20036;-77
2022/03/24 06:18:45;;;;;;;54.05;28.83;;;3.60;81.10;;;;;;5068974;28;20029;-77
2022/03/24 06:21:10;;;;;;;50.95;30.30;;;3.70;81.10;;;;;;5069263;28;20024;-77
2022/03/24 06:23:36;;;;;;;47.67;29.88;;;3.70;81.00;;;;;;5048900;28;20687;-77
2022/03/24 06:26:03;;;;;;;51.58;29.45;;;3.80;81.00;;;;;;5052853;28;20039;-77
2022/03/24 06:28:28;;;;;;;46.25;29.65;;;3.80;80.90;;;;;;5056020;28;20024;-77
2022/03/24 06:30:54;;;;;;;51.20;29.80;;;4.00;80.70;;;;;;5077373;28;20035;-77
2022/03/24 06:33:20;;;;;;;49.58;28.10;;;4.10;80.20;;;;;;5055472;28;20026;-77
2022/03/24 06:35:48;;;;;;;51.20;29.77;;;4.10;80.50;;;;;;5071903;28;20502;-76
2022/03/24 06:38:16;;;;;;;48.22;29.90;;;4.20;80.20;;;;;;5053168;28;20400;-76
2022/03/24 06:40:42;;;;;;;48.90;30.50;;;4.30;80.10;;;;;;5054211;28;21081;-76
2022/03/24 06:43:09;;;;;;;57.15;32.10;;;4.50;79.60;;;;;;5043023;28;20048;-76
2022/03/24 06:45:35;;;;;;;54.13;30.33;;;4.70;78.70;;;;;;5061467;28;20021;-76
2022/03/24 06:48:02;;;;;;;47.47;30.00;;;4.90;77.90;;;;;;5061046;28;20056;-76
2022/03/24 06:50:27;;;;;;;50.38;29.67;;;5.10;76.70;;;;;;5053633;28;20025;-78
2022/03/24 06:52:53;;;;;;;49.30;28.42;;;5.30;76.20;;;;;;5055355;28;20036;-77
2022/03/24 06:55:19;;;;;;;46.15;27.48;;;5.50;75.10;;;;;;5071668;28;20017;-77
2022/03/24 06:57:45;;;;;;;46.83;27.17;;;5.70;74.00;;;;;;5053567;28;20021;-76
2022/03/24 07:00:14;;;;;;;44.15;25.17;;;5.90;72.70;;;;;;5072323;28;20031;-76
2022/03/24 07:02:41;;;;;;;43.58;24.23;;;6.10;71.20;;;;;;5082257;28;20108;-76
2022/03/24 07:05:11;;;;;;;44.75;25.33;;;6.40;71.30;;;;;;5058950;28;20060;-77
2022/03/24 07:07:41;;;;;;;44.40;24.95;;;6.60;72.10;;;;;;5053560;28;20457;-78
2022/03/24 07:10:07;;;;;;;42.05;24.02;;;6.80;69.10;;;;;;5071790;28;20034;-77
2022/03/24 07:12:34;;;;;;;41.95;23.90;;;7.00;68.60;;;;;;5054438;28;20051;-77
2022/03/24 07:15:00;;;;;;;42.38;24.63;;;7.10;68.20;;;;;;5074050;28;20104;-77
2022/03/24 07:17:26;;;;;;;43.83;24.40;;;7.30;67.80;;;;;;5055844;28;20036;-78
2022/03/24 07:19:51;;;;;;;38.22;23.63;;;7.50;66.70;;;;;;5053083;28;20033;-79
2022/03/24 07:22:17;;;;;;;36.28;22.92;;;7.50;66.30;;;;;;5073391;28;21169;-77
2022/03/24 07:24:43;;;;;;;39.38;22.63;;;7.70;66.20;;;;;;5055687;28;20089;-78
2022/03/24 07:27:10;;;;;;;38.50;22.90;;;7.80;65.10;;;;;;5069087;28;20491;-78
2022/03/24 07:29:35;;;;;;;36.40;22.17;;;8.00;64.50;;;;;;5052746;28;20071;-78
2022/03/24 07:32:02;;;;;;;33.88;20.80;;;8.10;64.10;;;;;;5062698;28;20037;-78
2022/03/24 07:34:28;;;;;;;36.67;20.65;;;8.30;63.70;;;;;;5063923;28;20498;-78
2022/03/24 07:36:54;;;;;;;34.13;21.02;;;8.40;62.50;;;;;;5090466;28;20127;-78
2022/03/24 07:39:19;;;;;;;32.83;20.23;;;8.60;62.30;;;;;;5075334;28;20028;-78
2022/03/24 07:41:45;;;;;;;36.53;21.85;;;8.80;60.10;;;;;;5054615;28;20035;-78
2022/03/24 07:44:11;;;;;;;40.10;21.77;;;8.90;60.20;;;;;;5053815;28;20109;-78
2022/03/24 07:46:37;;;;;;;34.65;19.83;;;9.10;59.40;;;;;;5070593;28;20025;-78
2022/03/24 07:49:04;;;;;;;31.27;19.88;;;9.20;58.30;;;;;;5060091;28;20086;-78
2022/03/24 07:51:34;;;;;;;33.10;19.95;;;9.30;58.00;;;;;;5053174;28;20116;-78
2022/03/24 07:54:02;;;;;;;38.38;19.35;;;9.40;57.00;;;;;;5084039;28;20111;-78
2022/03/24 07:56:29;;;;;;;36.25;20.52;;;9.50;55.50;;;;;;5070562;28;20131;-78
2022/03/24 07:58:56;;;;;;;30.08;18.65;;;9.60;55.00;;;;;;5053215;28;20016;-78
2022/03/24 08:01:30;;;;;;;34.15;19.90;;;9.70;54.20;;;;;;5050180;28;20499;-78
2022/03/24 08:04:01;;;;;;;30.77;18.77;;;10.00;54.50;;;;;;5049421;28;20477;-78
2022/03/24 08:06:28;;;;;;;36.55;19.25;;;10.10;53.70;;;;;;5044526;28;20388;-78
2022/03/24 08:08:54;;;;;;;30.02;18.38;;;10.10;52.60;;;;;;5057892;28;20392;-78
2022/03/24 08:11:19;;;;;;;28.70;18.67;;;10.20;51.90;;;;;;5062916;28;20108;-78
2022/03/24 08:13:50;;;;;;;31.27;17.70;;;10.40;51.00;;;;;;5068148;28;20058;-78
2022/03/24 08:16:15;;;;;;;31.33;17.98;;;10.70;51.20;;;;;;5052390;28;20098;-78
2022/03/24 08:18:41;;;;;;;32.97;18.15;;;10.80;49.00;;;;;;5070625;28;20498;-78
2022/03/24 08:21:08;;;;;;;25.95;16.38;;;11.00;48.70;;;;;;5053160;28;20033;-78
2022/03/24 08:23:33;;;;;;;31.70;18.42;;;11.20;46.90;;;;;;5066764;28;20032;-78
2022/03/24 08:25:59;;;;;;;31.17;18.80;;;11.40;48.70;;;;;;5049250;28;20032;-78
2022/03/24 08:28:24;;;;;;;31.20;18.27;;;11.70;47.50;;;;;;5081042;28;20380;-78
2022/03/24 08:30:49;;;;;;;32.60;19.52;;;11.70;47.70;;;;;;5077081;28;20040;-78
2022/03/24 08:33:16;;;;;;;30.50;18.63;;;12.30;47.90;;;;;;5048290;28;20024;-79
2022/03/24 08:35:42;;;;;;;30.23;19.05;;;12.40;47.90;;;;;;5051070;28;20037;-79
2022/03/24 08:38:08;;;;;;;29.58;18.85;;;12.70;47.00;;;;;;5070213;28;20017;-79
2022/03/24 08:40:34;;;;;;;26.10;18.13;;;12.90;46.70;;;;;;5063827;28;20027;-79
2022/03/24 08:43:00;;;;;;;29.73;19.40;;;12.90;44.60;;;;;;5053014;28;20112;-79
2022/03/24 08:45:26;;;;;;;34.05;19.70;;;13.20;44.10;;;;;;5056217;28;20029;-79
2022/03/24 08:47:53;;;;;;;29.88;19.65;;;13.40;44.20;;;;;;5044320;28;20666;-79
2022/03/24 08:50:19;;;;;;;30.73;19.38;;;13.20;43.60;;;;;;5049993;28;20051;-79
2022/03/24 08:52:45;;;;;;;32.13;19.25;;;13.50;44.10;;;;;;5072043;28;20039;-79
2022/03/24 08:55:13;;;;;;;29.80;20.33;;;13.20;43.70;;;;;;5054650;28;20038;-79
2022/03/24 08:57:40;;;;;;;30.67;19.65;;;13.30;44.50;;;;;;5047211;28;20041;-79
2022/03/24 09:00:15;;;;;;;41.40;20.15;;;13.30;45.60;;;;;;5044639;28;20036;-79
2022/03/24 09:02:43;;;;;;;33.55;20.23;;;14.00;44.40;;;;;;5059368;28;20099;-79
2022/03/24 09:05:09;;;;;;;31.88;20.13;;;13.70;43.60;;;;;;5068343;28;20055;-79
2022/03/24 09:07:36;;;;;;;36.67;20.60;;;14.00;43.20;;;;;;5055912;28;20025;-79
2022/03/24 09:10:03;;;;;;;32.25;20.83;;;13.70;44.50;;;;;;5056796;28;20067;-79
2022/03/24 09:12:29;;;;;;;29.27;19.85;;;14.00;43.10;;;;;;5049417;28;20676;-80
2022/03/24 09:14:55;;;;;;;32.50;20.58;;;14.20;42.30;;;;;;5070681;28;20048;-79
2022/03/24 09:17:20;;;;;;;28.38;19.63;;;14.40;42.20;;;;;;5064880;28;20051;-79
2022/03/24 09:19:46;;;;;;;32.33;20.42;;;14.50;41.60;;;;;;5044531;28;20380;-79
2022/03/24 09:22:12;;;;;;;35.10;20.35;;;14.70;40.10;;;;;;5053677;28;20136;-79
2022/03/24 09:24:38;;;;;;;30.65;19.98;;;14.60;39.80;;;;;;5070848;28;20024;-79
2022/03/24 09:27:05;;;;;;;36.47;20.48;;;14.60;40.10;;;;;;5063848;28;20047;-79
2022/03/24 09:29:31;;;;;;;33.35;19.25;;;14.40;38.90;;;;;;5071185;28;20028;-79
2022/03/24 09:31:57;;;;;;;34.83;20.25;;;14.20;39.70;;;;;;5050070;28;20064;-79
2022/03/24 09:34:24;;;;;;;32.00;19.13;;;14.10;41.00;;;;;;5048068;28;20035;-79
2022/03/24 09:36:49;;;;;;;32.20;17.92;;;14.60;39.30;;;;;;5060501;28;20044;-79
2022/03/24 09:39:15;;;;;;;31.13;19.48;;;14.90;38.60;;;;;;5061451;28;20013;-79
2022/03/24 09:41:46;;;;;;;32.40;20.20;;;15.20;38.70;;;;;;5055560;28;20025;-79
2022/03/24 09:44:12;;;;;;;35.13;19.37;;;15.50;39.50;;;;;;5062472;28;20609;-79
2022/03/24 09:46:38;;;;;;;31.83;19.88;;;15.60;37.80;;;;;;5049037;28;20369;-80
2022/03/24 09:49:03;;;;;;;32.88;19.60;;;15.80;38.90;;;;;;5052167;28;20121;-79
2022/03/24 09:51:30;;;;;;;33.28;19.30;;;15.50;38.60;;;;;;5072785;28;20177;-79
2022/03/24 09:53:56;;;;;;;32.75;21.35;;;15.80;39.50;;;;;;5046960;28;20025;-79
2022/03/24 09:56:21;;;;;;;36.50;20.05;;;15.50;38.60;;;;;;5060553;28;20029;-79
2022/03/24 09:58:50;;;;;;;32.15;21.05;;;15.30;39.00;;;;;;5069245;28;20037;-79
2022/03/24 10:01:17;;;;;;;35.17;19.73;;;15.70;37.60;;;;;;5060247;28;20111;-79
2022/03/24 10:04:02;;;;;;;32.90;20.15;;;15.60;38.40;;;;;;5074169;28;20123;-79
2022/03/24 10:06:28;;;;;;;32.65;20.40;;;16.00;38.80;;;;;;5051312;28;20507;-79
2022/03/24 10:08:54;;;;;;;37.42;20.08;;;16.40;38.80;;;;;;5074037;28;20587;-79
2022/03/24 10:11:24;;;;;;;33.75;20.17;;;15.60;40.50;;;;;;5053578;28;20028;-79
2022/03/24 10:13:54;;;;;;;32.97;21.17;;;16.20;40.30;;;;;;5067502;28;20032;-79
2022/03/24 10:16:35;;;;;;;33.53;20.07;;;16.40;39.30;;;;;;5052106;28;20017;-79
2022/03/24 10:19:03;;;;;;;33.10;20.80;;;15.80;38.50;;;;;;5068098;28;20360;-79
2022/03/24 10:21:29;;;;;;;33.20;20.60;;;15.70;40.80;;;;;;5053149;28;20127;-79
2022/03/24 10:24:00;;;;;;;35.95;22.15;;;15.70;41.10;;;;;;5069884;28;20033;-79
2022/03/24 10:26:42;;;;;;;32.17;21.38;;;16.20;39.40;;;;;;5068929;28;20106;-79
2022/03/24 10:29:13;;;;;;;35.63;20.65;;;16.60;38.20;;;;;;5046589;28;20480;-80
2022/03/24 10:31:41;;;;;;;29.38;20.38;;;16.30;38.10;;;;;;5056519;28;20480;-80
2022/03/24 10:34:07;;;;;;;31.95;20.70;;;16.90;38.00;;;;;;5044737;28;20036;-80
2022/03/24 10:36:33;;;;;;;35.58;20.65;;;16.80;38.00;;;;;;5075498;28;20054;-80
2022/03/24 10:39:04;;;;;;;34.60;20.40;;;17.20;37.80;;;;;;5059942;28;20028;-80
2022/03/24 10:41:35;;;;;;;38.42;21.08;;;17.10;37.20;;;;;;5059268;28;20035;-80
2022/03/24 10:44:07;;;;;;;30.80;20.75;;;17.00;37.10;;;;;;5095682;28;20446;-80
2022/03/24 10:46:35;;;;;;;34.83;20.13;;;17.50;37.60;;;;;;5085206;28;20021;-80
2022/03/24 10:49:27;;;;;;;32.25;20.42;;;17.70;37.50;;;;;;5073206;28;20029;-80
2022/03/24 10:51:54;;;;;;;30.60;19.65;;;17.30;36.80;;;;;;5055669;28;20508;-80
2022/03/24 10:54:41;;;;;;;30.10;19.23;;;17.30;38.20;;;;;;5059927;28;20108;-80
2022/03/24 10:57:14;;;;;;;32.50;20.05;;;17.60;37.30;;;;;;5094668;28;20027;-80
2022/03/24 10:59:45;;;;;;;35.03;21.23;;;18.00;38.30;;;;;;5100336;28;20494;-80
2022/03/24 11:02:13;;;;;;;30.88;21.05;;;17.80;38.60;;;;;;5079770;28;20055;-80
2022/03/24 11:04:39;;;;;;;36.75;21.30;;;18.00;37.50;;;;;;5058642;28;20070;-80
2022/03/24 11:07:05;;;;;;;31.25;20.23;;;17.70;37.80;;;;;;5070791;28;20025;-80
2022/03/24 11:09:33;;;;;;;33.83;21.10;;;18.00;38.20;;;;;;5081386;28;20035;-80
2022/03/24 11:12:33;;;;;;;35.30;21.40;;;17.50;39.50;;;;;;5096409;28;20047;-80
2022/03/24 11:15:05;;;;;;;30.87;21.27;;;17.80;37.80;;;;;;5064163;28;20028;-80
2022/03/24 11:17:32;;;;;;;33.38;21.90;;;18.00;38.10;;;;;;5076248;28;20274;-80
2022/03/24 11:20:01;;;;;;;34.03;22.08;;;17.80;38.20;;;;;;5071759;28;20067;-80
2022/03/24 11:22:37;;;;;;;30.88;21.02;;;17.80;37.50;;;;;;5086268;28;20039;-80
2022/03/24 11:25:03;;;;;;;31.90;20.73;;;18.50;37.80;;;;;;5073511;28;20020;-80
2022/03/24 11:27:30;;;;;;;31.75;23.23;;;18.50;36.00;;;;;;5072387;28;20468;-80
2022/03/24 11:29:55;;;;;;;35.42;22.05;;;18.40;36.50;;;;;;5066185;28;20107;-80
2022/03/24 11:32:22;;;;;;;33.03;20.92;;;18.50;37.60;;;;;;5090885;28;20075;-80
2022/03/24 11:34:48;;;;;;;32.65;21.45;;;18.50;35.70;;;;;;5076724;28;20035;-80
2022/03/24 11:37:14;;;;;;;30.95;21.02;;;18.60;36.20;;;;;;5080409;28;20048;-80
2022/03/24 11:40:02;;;;;;;26.27;20.23;;;18.40;36.30;;;;;;5076707;28;20128;-80
2022/03/24 11:42:28;;;;;;;34.85;21.23;;;18.80;36.30;;;;;;5083464;28;20017;-80
2022/03/24 11:45:01;;;;;;;33.03;21.13;;;19.00;34.50;;;;;;5089948;28;20035;-81
2022/03/24 11:47:48;;;;;;;34.50;21.30;;;18.50;35.10;;;;;;5073485;28;20460;-80
2022/03/24 11:50:17;;;;;;;32.75;22.08;;;18.70;35.70;;;;;;5043789;28;20118;-80
2022/03/24 11:52:43;;;;;;;29.70;19.30;;;19.20;34.90;;;;;;5045286;28;20040;-80
2022/03/24 11:55:15;;;;;;;28.33;20.15;;;19.30;34.70;;;;;;5045655;28;20622;-80
2022/03/24 11:57:42;;;;;;;31.98;20.75;;;19.70;35.80;;;;;;5054665;28;20031;-80
2022/03/24 12:00:13;;;;;;;26.80;20.83;;;19.60;34.80;;;;;;5055631;28;20023;-80
2022/03/24 12:02:40;;;;;;;28.38;19.27;;;19.90;34.50;;;;;;5058095;28;20029;-80
2022/03/24 12:05:07;;;;;;;30.65;17.63;;;19.70;34.40;;;;;;5073693;28;20020;-80
2022/03/24 12:07:32;;;;;;;24.17;15.85;;;19.70;34.50;;;;;;5069372;28;20047;-80
2022/03/24 12:10:20;;;;;;;24.83;17.67;;;20.10;34.20;;;;;;5056238;28;20025;-80
2022/03/24 12:13:21;;;;;;;27.85;17.35;;;19.80;33.90;;;;;;5063820;28;20131;-80
2022/03/24 12:16:21;;;;;;;25.45;17.00;;;20.00;34.80;;;;;;5055593;28;20029;-80
2022/03/24 12:18:47;;;;;;;26.23;15.80;;;20.30;32.10;;;;;;5075212;28;20024;-80
2022/03/24 12:21:22;;;;;;;23.13;15.35;;;20.10;33.60;;;;;;5075446;28;20039;-80
2022/03/24 12:24:14;;;;;;;26.58;17.92;;;20.50;33.60;;;;;;5075102;28;20107;-80
2022/03/24 12:26:50;;;;;;;23.35;15.63;;;21.10;32.50;;;;;;5054920;28;20032;-80
2022/03/24 12:29:19;;;;;;;26.67;17.45;;;20.90;31.50;;;;;;5054701;28;20029;-81
2022/03/24 12:31:59;;;;;;;25.42;17.02;;;20.90;32.10;;;;;;5059233;28;20032;-81
2022/03/24 12:34:44;;;;;;;23.45;17.58;;;21.60;31.30;;;;;;5076404;28;20028;-81
2022/03/24 12:37:32;;;;;;;26.10;17.10;;;21.10;31.60;;;;;;5071470;28;20036;-81
2022/03/24 12:40:18;;;;;;;20.70;12.85;;;21.90;31.90;;;;;;5056762;28;20028;-81